createdAt,value
2017-12-04T00:02:22.246Z,55.67
2017-12-04T00:04:48.387Z,55.88
2017-12-04T00:07:14.613Z,58.80
2017-12-04T00:09:41.921Z,58.92
2017-12-04T00:12:08.045Z,52.35
2017-12-04T00:14:34.153Z,53.22
2017-12-04T00:17:01.213Z,58.53
2017-12-04T00:19:28.106Z,52.13
2017-12-04T00:21:54.248Z,51.80
2017-12-04T00:24:20.394Z,57.72
2017-12-04T00:26:46.595Z,66.87
2017-12-04T00:29:13.613Z,63.63
2017-12-04T00:31:39.865Z,62.90
2017-12-04T00:34:06.019Z,74.82
2017-12-04T00:36:33.115Z,54.60
2017-12-04T00:38:59.247Z,59.53
2017-12-04T00:41:25.613Z,54.10
2017-12-04T00:43:51.760Z,63.35
2017-12-04T00:46:18.186Z,84.13
2017-12-04T00:48:45.243Z,61.28
2017-12-04T00:51:11.629Z,58.05
2017-12-04T00:53:38.492Z,65.18
2017-12-04T00:56:05.577Z,63.10
2017-12-04T00:58:35.739Z,76.12
2017-12-04T01:01:05.951Z,71.22
2017-12-04T01:03:38.180Z,70.32
2017-12-04T01:06:04.297Z,74.82
2017-12-04T01:08:31.434Z,62.33
2017-12-04T01:10:57.576Z,72.28
2017-12-04T01:13:23.705Z,69.62
2017-12-04T01:15:50.358Z,67.95
2017-12-04T01:18:16.556Z,64.68
2017-12-04T01:20:42.712Z,66.95
2017-12-04T01:23:09.601Z,72.60
2017-12-04T01:25:35.691Z,77.95
2017-12-04T01:28:02.537Z,68.20
2017-12-04T01:30:28.632Z,59.65
2017-12-04T01:32:54.756Z,76.20
2017-12-04T01:35:20.884Z,70.15
2017-12-04T01:37:47.019Z,64.25
2017-12-04T01:40:13.241Z,66.15
2017-12-04T01:42:39.377Z,68.03
2017-12-04T01:45:06.402Z,58.08
2017-12-04T01:47:32.620Z,75.93
2017-12-04T01:49:58.872Z,80.10
2017-12-04T01:52:25.209Z,78.00
2017-12-04T01:54:51.428Z,73.22
2017-12-04T01:57:18.373Z,72.70
2017-12-04T01:59:45.400Z,78.62
2017-12-04T02:02:11.580Z,81.78
2017-12-04T02:04:38.414Z,79.07
2017-12-04T02:07:04.667Z,82.00
2017-12-04T02:09:30.955Z,75.60
2017-12-04T02:11:57.079Z,77.15
2017-12-04T02:14:23.232Z,77.00
2017-12-04T02:16:49.397Z,62.70
2017-12-04T02:19:15.638Z,73.35
2017-12-04T02:21:42.049Z,79.07
2017-12-04T02:24:09.024Z,79.40
2017-12-04T02:26:35.175Z,75.47
2017-12-04T02:29:02.039Z,78.72
2017-12-04T02:31:28.344Z,68.32
2017-12-04T02:33:54.641Z,71.47
2017-12-04T02:36:21.614Z,76.57
2017-12-04T02:38:47.741Z,86.03
2017-12-04T02:41:14.596Z,80.62
2017-12-04T02:43:40.708Z,75.20
2017-12-04T02:46:07.640Z,79.30
2017-12-04T02:48:33.836Z,75.72
2017-12-04T02:51:00.764Z,81.28
2017-12-04T02:53:26.938Z,72.18
2017-12-04T02:55:53.137Z,84.90
2017-12-04T02:58:19.536Z,91.15
2017-12-04T03:00:45.664Z,83.57
2017-12-04T03:03:11.836Z,85.38
2017-12-04T03:05:38.034Z,71.90
2017-12-04T03:08:04.288Z,79.12
2017-12-04T03:10:30.488Z,72.57
2017-12-04T03:12:56.596Z,80.60
2017-12-04T03:15:22.736Z,77.82
2017-12-04T03:17:48.889Z,84.13
2017-12-04T03:20:15.091Z,73.62
2017-12-04T03:22:41.256Z,56.35
2017-12-04T03:25:07.451Z,76.32
2017-12-04T03:27:34.379Z,71.72
2017-12-04T03:30:00.522Z,82.55
2017-12-04T03:32:26.733Z,77.62
2017-12-04T03:34:52.849Z,79.60
2017-12-04T03:37:18.966Z,79.57
2017-12-04T03:39:45.128Z,76.70
2017-12-04T03:42:11.341Z,79.05
2017-12-04T03:44:38.888Z,83.78
2017-12-04T03:47:05.039Z,71.25
2017-12-04T03:49:31.951Z,80.72
2017-12-04T03:51:58.101Z,83.87
2017-12-04T03:54:24.207Z,76.07
2017-12-04T03:56:50.391Z,77.62
2017-12-04T03:59:17.321Z,75.68
2017-12-04T04:01:43.476Z,69.65
2017-12-04T04:04:09.613Z,74.30
2017-12-04T04:06:35.720Z,69.87
2017-12-04T04:09:02.082Z,64.60
2017-12-04T04:11:28.466Z,73.65
2017-12-04T04:13:55.567Z,61.95
2017-12-04T04:16:22.730Z,56.22
2017-12-04T04:18:48.875Z,74.25
2017-12-04T04:21:15.083Z,71.32
2017-12-04T04:23:41.227Z,66.43
2017-12-04T04:26:07.321Z,74.57
2017-12-04T04:28:33.424Z,73.53
2017-12-04T04:31:00.578Z,82.00
2017-12-04T04:33:26.873Z,86.57
2017-12-04T04:35:52.974Z,77.75
2017-12-04T04:38:19.288Z,76.28
2017-12-04T04:40:45.611Z,78.35
2017-12-04T04:43:12.663Z,77.65
2017-12-04T04:45:38.805Z,84.15
2017-12-04T04:48:04.932Z,88.53
2017-12-04T04:50:31.768Z,89.80
2017-12-04T04:52:57.891Z,85.87
2017-12-04T04:55:24.896Z,89.78
2017-12-04T04:57:51.750Z,75.68
2017-12-04T05:00:18.942Z,80.45
2017-12-04T05:02:45.244Z,93.05
2017-12-04T05:05:11.471Z,83.72
2017-12-04T05:07:37.584Z,86.82
2017-12-04T05:10:03.746Z,91.28
2017-12-04T05:12:30.613Z,97.30
2017-12-04T05:14:57.458Z,81.28
2017-12-04T05:17:23.574Z,94.05
2017-12-04T05:19:49.773Z,107.20
2017-12-04T05:22:15.887Z,91.57
2017-12-04T05:24:41.985Z,91.28
2017-12-04T05:27:08.099Z,90.25
2017-12-04T05:29:34.200Z,96.50
2017-12-04T05:32:00.591Z,97.55
2017-12-04T05:34:27.088Z,103.87
2017-12-04T05:36:54.241Z,97.10
2017-12-04T05:39:21.557Z,86.03
2017-12-04T05:41:48.290Z,92.40
2017-12-04T05:44:14.400Z,97.20
2017-12-04T05:46:41.265Z,106.45
2017-12-04T05:49:07.393Z,100.03
2017-12-04T05:51:33.737Z,93.85
2017-12-04T05:54:00.042Z,95.32
2017-12-04T05:56:26.360Z,90.38
2017-12-04T05:58:52.735Z,84.07
2017-12-04T06:01:19.088Z,92.20
2017-12-04T06:03:45.560Z,103.40
2017-12-04T06:06:12.691Z,93.07
2017-12-04T06:08:38.981Z,84.28
2017-12-04T06:11:05.294Z,83.45
2017-12-04T06:13:31.729Z,76.75
2017-12-04T06:15:58.046Z,82.25
2017-12-04T06:18:24.699Z,82.82
2017-12-04T06:20:51.076Z,77.97
2017-12-04T06:23:18.207Z,84.28
2017-12-04T06:25:44.360Z,87.55
2017-12-04T06:28:11.758Z,79.95
2017-12-04T06:30:37.929Z,73.25
2017-12-04T06:33:04.076Z,66.37
2017-12-04T06:35:30.185Z,82.32
2017-12-04T06:37:56.310Z,96.07
2017-12-04T06:40:23.417Z,81.25
2017-12-04T06:42:49.527Z,82.97
2017-12-04T06:45:15.653Z,85.53
2017-12-04T06:47:42.044Z,77.97
2017-12-04T06:50:08.403Z,76.43
2017-12-04T06:52:34.732Z,85.72
2017-12-04T06:55:01.135Z,76.50
2017-12-04T06:57:27.638Z,90.87
2017-12-04T06:59:54.011Z,84.95
2017-12-04T07:02:20.317Z,78.45
2017-12-04T07:04:47.019Z,86.15
2017-12-04T07:07:13.515Z,80.75
2017-12-04T07:09:40.157Z,84.45
2017-12-04T07:12:06.643Z,73.82
2017-12-04T07:14:33.925Z,76.97
2017-12-04T07:17:01.171Z,94.30
2017-12-04T07:19:27.701Z,63.45
2017-12-04T07:21:54.055Z,75.00
2017-12-04T07:24:21.176Z,81.18
2017-12-04T07:26:48.379Z,79.68
2017-12-04T07:29:14.484Z,79.57
2017-12-04T07:31:40.699Z,81.12
2017-12-04T07:34:06.800Z,74.12
2017-12-04T07:36:33.178Z,74.03
2017-12-04T07:38:59.357Z,58.40
2017-12-04T07:41:25.678Z,70.75
2017-12-04T07:43:52.036Z,71.78
2017-12-04T07:46:18.372Z,67.05
2017-12-04T07:48:44.671Z,64.15
2017-12-04T07:51:10.969Z,68.03
2017-12-04T07:53:37.885Z,76.25
2017-12-04T07:56:04.165Z,74.25
2017-12-04T07:58:30.508Z,67.65
2017-12-04T08:00:56.990Z,69.60
2017-12-04T08:03:24.088Z,67.68
2017-12-04T08:05:50.471Z,78.00
2017-12-04T08:08:16.787Z,78.32
2017-12-04T08:10:43.124Z,92.70
2017-12-04T08:13:09.479Z,88.53
2017-12-04T08:15:35.830Z,78.12
2017-12-04T08:18:02.226Z,92.70
2017-12-04T08:20:29.313Z,78.47
2017-12-04T08:22:55.450Z,81.00
2017-12-04T08:25:21.594Z,74.57
2017-12-04T08:27:47.891Z,81.95
2017-12-04T08:30:15.012Z,71.03
2017-12-04T08:32:41.502Z,74.57
2017-12-04T08:35:08.630Z,77.43
2017-12-04T08:37:34.904Z,58.50
2017-12-04T08:40:01.281Z,72.12
2017-12-04T08:42:27.908Z,61.75
2017-12-04T08:45:01.125Z,65.45
2017-12-04T08:47:28.026Z,63.22
2017-12-04T08:49:54.140Z,71.22
2017-12-04T08:52:20.436Z,54.60
2017-12-04T08:54:46.646Z,57.85
2017-12-04T08:57:12.764Z,62.95
2017-12-04T08:59:40.777Z,56.08
2017-12-04T09:02:07.756Z,62.00
2017-12-04T09:04:39.684Z,57.97
2017-12-04T09:07:00.175Z,53.80
2017-12-04T09:09:26.284Z,58.25
2017-12-04T09:11:52.524Z,53.85
2017-12-04T09:14:18.658Z,59.67
2017-12-04T09:16:44.808Z,65.97
2017-12-04T09:19:11.668Z,50.53
2017-12-04T09:21:40.997Z,60.55
2017-12-04T09:24:08.894Z,58.22
2017-12-04T09:26:35.029Z,59.97
2017-12-04T09:29:01.159Z,54.05
2017-12-04T09:31:27.348Z,57.72
2017-12-04T09:33:53.548Z,53.83
2017-12-04T09:36:19.725Z,58.55
2017-12-04T09:38:45.917Z,58.35
2017-12-04T09:41:12.053Z,52.15
2017-12-04T09:43:38.231Z,50.83
2017-12-04T09:46:05.752Z,46.42
2017-12-04T09:48:32.818Z,40.08
2017-12-04T09:50:58.943Z,40.95
2017-12-04T09:53:25.776Z,37.03
2017-12-04T09:55:51.896Z,42.17
2017-12-04T09:58:18.054Z,40.50
2017-12-04T10:00:44.191Z,39.75
2017-12-04T10:03:10.284Z,44.20
2017-12-04T10:05:37.209Z,44.60
2017-12-04T10:08:03.341Z,40.58
2017-12-04T10:10:29.495Z,35.10
2017-12-04T10:12:55.748Z,40.55
2017-12-04T10:15:21.949Z,39.33
2017-12-04T10:17:48.126Z,32.05
2017-12-04T10:20:14.236Z,38.03
2017-12-04T10:22:40.380Z,37.65
2017-12-04T10:25:06.479Z,39.20
2017-12-04T10:27:35.376Z,40.65
2017-12-04T10:30:01.975Z,35.30
2017-12-04T10:32:28.112Z,42.75
2017-12-04T10:34:54.250Z,52.50
2017-12-04T10:37:20.425Z,44.35
2017-12-04T10:39:46.562Z,35.53
2017-12-04T10:42:12.676Z,41.50
2017-12-04T10:44:42.586Z,40.65
2017-12-04T10:47:08.856Z,38.25
2017-12-04T10:49:34.993Z,42.33
2017-12-04T10:52:01.844Z,42.05
2017-12-04T10:54:28.155Z,36.22
2017-12-04T10:56:54.273Z,38.33
2017-12-04T10:59:21.176Z,36.05
2017-12-04T11:01:47.325Z,36.10
2017-12-04T11:04:13.447Z,41.08
2017-12-04T11:06:39.577Z,46.88
2017-12-04T11:09:05.711Z,36.50
2017-12-04T11:11:35.157Z,36.78
2017-12-04T11:14:01.336Z,38.30
2017-12-04T11:16:27.765Z,44.08
2017-12-04T11:18:53.888Z,42.42
2017-12-04T11:21:20.015Z,41.08
2017-12-04T11:23:46.154Z,48.53
2017-12-04T11:26:12.332Z,39.63
2017-12-04T11:28:38.583Z,37.33
2017-12-04T11:31:05.565Z,37.22
2017-12-04T11:33:31.994Z,35.17
2017-12-04T11:35:58.113Z,35.03
2017-12-04T11:38:27.324Z,33.47
2017-12-04T11:40:53.547Z,35.03
2017-12-04T11:43:19.697Z,34.67
2017-12-04T11:45:46.658Z,37.38
2017-12-04T11:48:13.669Z,40.25
2017-12-04T11:50:40.489Z,35.88
2017-12-04T11:53:06.615Z,33.45
2017-12-04T11:55:32.754Z,34.83
2017-12-04T11:57:58.864Z,38.63
2017-12-04T12:00:24.968Z,27.73
2017-12-04T12:02:52.041Z,35.50
2017-12-04T12:05:18.199Z,29.40
2017-12-04T12:07:44.310Z,31.75
2017-12-04T12:10:10.424Z,31.75
2017-12-04T12:12:37.261Z,26.17
2017-12-04T12:15:03.372Z,29.63
2017-12-04T12:17:29.516Z,30.02
2017-12-04T12:19:55.608Z,28.45
2017-12-04T12:22:22.436Z,30.60
2017-12-04T12:24:48.521Z,27.37
2017-12-04T12:27:14.627Z,24.00
2017-12-04T12:29:40.950Z,29.17
2017-12-04T12:32:07.155Z,23.60
2017-12-04T12:34:33.239Z,25.75
2017-12-04T12:36:59.324Z,23.52
2017-12-04T12:39:25.426Z,23.15
2017-12-04T12:41:52.274Z,24.25
2017-12-04T12:44:18.441Z,20.65
2017-12-04T12:46:45.560Z,30.65
2017-12-04T12:49:11.715Z,21.42
2017-12-04T12:51:42.552Z,30.55
2017-12-04T12:54:09.980Z,31.37
2017-12-04T12:56:36.133Z,25.00
2017-12-04T12:59:02.244Z,22.85
2017-12-04T13:01:29.082Z,28.20
2017-12-04T13:03:55.955Z,25.25
2017-12-04T13:06:22.088Z,26.30
2017-12-04T13:08:48.224Z,24.20
2017-12-04T13:11:14.359Z,24.73
2017-12-04T13:13:40.584Z,19.77
2017-12-04T13:16:07.476Z,16.37
2017-12-04T13:18:33.672Z,27.10
2017-12-04T13:20:59.755Z,22.35
2017-12-04T13:23:25.872Z,25.23
2017-12-04T13:25:52.015Z,21.05
2017-12-04T13:28:18.145Z,20.17
2017-12-04T13:30:48.276Z,20.65
2017-12-04T13:33:26.763Z,28.17
2017-12-04T13:36:05.243Z,24.90
2017-12-04T13:38:32.302Z,23.17
2017-12-04T13:40:59.172Z,20.52
2017-12-04T13:43:26.039Z,20.95
2017-12-04T13:45:52.148Z,22.15
2017-12-04T13:48:18.309Z,26.92
2017-12-04T13:50:45.170Z,26.35
2017-12-04T13:53:11.444Z,23.23
2017-12-04T13:55:37.572Z,26.65
2017-12-04T13:58:03.737Z,22.67
2017-12-04T14:00:29.897Z,26.42
2017-12-04T14:02:56.028Z,22.65
2017-12-04T14:05:22.176Z,17.60
2017-12-04T14:07:48.322Z,30.73
2017-12-04T14:10:14.506Z,26.05
2017-12-04T14:12:40.605Z,28.25
2017-12-04T14:15:07.220Z,19.55
2017-12-04T14:17:34.075Z,20.85
2017-12-04T14:20:00.181Z,28.25
2017-12-04T14:22:27.002Z,19.52
2017-12-04T14:24:56.869Z,24.35
2017-12-04T14:27:23.724Z,20.55
2017-12-04T14:29:49.861Z,21.45
2017-12-04T14:32:16.024Z,14.85
2017-12-04T14:34:42.149Z,19.20
2017-12-04T14:37:08.353Z,24.10
2017-12-04T14:39:34.508Z,19.65
2017-12-04T14:42:01.370Z,22.73
2017-12-04T14:44:27.513Z,24.60
2017-12-04T14:46:58.648Z,25.52
2017-12-04T14:49:24.813Z,18.55
2017-12-04T14:51:50.939Z,21.15
2017-12-04T14:54:17.796Z,22.62
2017-12-04T14:56:44.643Z,19.65
2017-12-04T14:59:10.808Z,19.87
2017-12-04T15:01:37.028Z,17.80
2017-12-04T15:04:07.124Z,15.30
2017-12-04T15:06:33.867Z,16.08
2017-12-04T15:09:01.263Z,16.77
2017-12-04T15:11:27.441Z,23.35
2017-12-04T15:13:54.378Z,22.65
2017-12-04T15:16:20.542Z,18.05
2017-12-04T15:18:47.409Z,16.33
2017-12-04T15:21:13.537Z,19.35
2017-12-04T15:23:40.451Z,29.63
2017-12-04T15:26:06.564Z,14.00
2017-12-04T15:28:32.709Z,14.23
2017-12-04T15:30:58.855Z,18.12
2017-12-04T15:33:25.034Z,16.02
2017-12-04T15:35:51.190Z,16.45
2017-12-04T15:38:17.319Z,17.27
2017-12-04T15:40:44.973Z,17.62
2017-12-04T15:43:11.193Z,27.52
2017-12-04T15:45:37.447Z,20.00
2017-12-04T15:48:04.353Z,22.52
2017-12-04T15:50:31.212Z,24.50
2017-12-04T15:52:57.351Z,28.48
2017-12-04T15:55:24.087Z,27.65
2017-12-04T15:57:50.940Z,25.35
2017-12-04T16:00:17.121Z,26.20
2017-12-04T16:02:43.261Z,24.73
2017-12-04T16:05:09.384Z,28.62
2017-12-04T16:07:37.522Z,32.50
2017-12-04T16:10:03.744Z,21.90
2017-12-04T16:12:29.880Z,25.50
2017-12-04T16:14:56.011Z,27.62
2017-12-04T16:17:22.158Z,26.12
2017-12-04T16:19:49.172Z,20.40
2017-12-04T16:22:15.280Z,21.02
2017-12-04T16:24:42.213Z,28.45
2017-12-04T16:27:08.361Z,25.60
2017-12-04T16:29:34.513Z,32.70
2017-12-04T16:32:00.645Z,25.90
2017-12-04T16:34:27.505Z,22.27
2017-12-04T16:36:53.647Z,20.83
2017-12-04T16:39:20.484Z,23.45
2017-12-04T16:41:46.597Z,23.45
2017-12-04T16:44:13.322Z,27.02
2017-12-04T16:46:40.171Z,21.70
2017-12-04T16:49:07.701Z,26.05
2017-12-04T16:51:33.825Z,26.95
2017-12-04T16:53:59.949Z,30.95
2017-12-04T16:56:26.192Z,28.40
2017-12-04T16:58:52.317Z,22.77
2017-12-04T17:01:18.420Z,24.85
2017-12-04T17:03:45.323Z,26.30
2017-12-04T17:06:11.465Z,24.12
2017-12-04T17:08:37.710Z,24.77
2017-12-04T17:11:03.941Z,25.98
2017-12-04T17:13:30.181Z,26.10
2017-12-04T17:15:56.419Z,25.45
2017-12-04T17:18:22.630Z,26.02
2017-12-04T17:20:48.742Z,32.85
2017-12-04T17:23:15.717Z,26.58
2017-12-04T17:25:44.047Z,26.42
2017-12-04T17:28:10.152Z,40.63
2017-12-04T17:30:36.497Z,21.23
2017-12-04T17:33:02.620Z,29.90
2017-12-04T17:35:28.754Z,22.30
2017-12-04T17:37:55.761Z,32.78
2017-12-04T17:40:22.556Z,26.30
2017-12-04T17:42:48.681Z,25.60
2017-12-04T17:45:14.909Z,26.70
2017-12-04T17:47:41.012Z,26.98
2017-12-04T17:50:07.143Z,20.98
2017-12-04T17:52:33.446Z,26.42
2017-12-04T17:54:59.612Z,24.42
2017-12-04T17:57:25.796Z,20.27
2017-12-04T17:59:51.920Z,22.42
2017-12-04T18:02:18.045Z,19.58
2017-12-04T18:04:44.340Z,25.42
2017-12-04T18:07:10.449Z,24.20
2017-12-04T18:09:36.627Z,39.97
2017-12-04T18:12:03.564Z,26.27
2017-12-04T18:14:29.768Z,25.88
2017-12-04T18:16:56.581Z,31.67
2017-12-04T18:19:23.694Z,27.98
2017-12-04T18:21:49.826Z,22.62
2017-12-04T18:24:15.945Z,60.53
2017-12-04T18:26:42.106Z,26.58
2017-12-04T18:29:08.257Z,19.42
2017-12-04T18:31:35.146Z,20.73
2017-12-04T18:34:01.986Z,19.95
2017-12-04T18:36:28.074Z,23.95
2017-12-04T18:38:54.260Z,21.17
2017-12-04T18:41:21.115Z,31.98
2017-12-04T18:43:47.232Z,25.02
2017-12-04T18:46:13.352Z,32.30
2017-12-04T18:48:39.540Z,31.20
2017-12-04T18:51:06.467Z,18.17
2017-12-04T18:53:32.596Z,35.33
2017-12-04T18:55:58.732Z,31.20
2017-12-04T18:58:24.869Z,22.83
2017-12-04T19:00:50.964Z,28.55
2017-12-04T19:03:17.941Z,31.55
2017-12-04T19:05:44.078Z,21.15
2017-12-04T19:08:10.236Z,21.10
2017-12-04T19:10:36.328Z,26.37
2017-12-04T19:13:03.202Z,28.65
2017-12-04T19:15:30.363Z,27.80
2017-12-04T19:17:56.479Z,29.17
2017-12-04T19:20:22.642Z,29.10
2017-12-04T19:22:48.761Z,26.98
2017-12-04T19:25:15.592Z,31.42
2017-12-04T19:27:41.694Z,35.58
2017-12-04T19:30:07.795Z,30.02
2017-12-04T19:32:33.961Z,31.52
2017-12-04T19:35:00.257Z,26.92
2017-12-04T19:37:26.551Z,26.08
2017-12-04T19:39:52.863Z,25.23
2017-12-04T19:42:19.185Z,33.13
2017-12-04T19:44:45.631Z,23.87
2017-12-04T19:47:11.985Z,33.00
2017-12-04T19:49:38.288Z,28.95
2017-12-04T19:52:04.656Z,24.92
2017-12-04T19:54:31.822Z,40.20
2017-12-04T19:56:58.144Z,29.50
2017-12-04T19:59:24.448Z,27.02
2017-12-04T20:01:50.776Z,28.85
2017-12-04T20:04:17.332Z,26.80
2017-12-04T20:06:43.658Z,39.90
2017-12-04T20:09:10.872Z,33.20
2017-12-04T20:11:37.202Z,29.60
2017-12-04T20:14:03.548Z,33.70
2017-12-04T20:16:29.973Z,32.83
2017-12-04T20:18:57.032Z,39.25
2017-12-04T20:21:24.084Z,35.53
2017-12-04T20:23:50.446Z,38.83
2017-12-04T20:26:17.094Z,35.95
2017-12-04T20:28:47.110Z,53.08
2017-12-04T20:31:13.473Z,45.63
2017-12-04T20:33:39.826Z,46.60
2017-12-04T20:36:06.209Z,49.47
2017-12-04T20:38:32.782Z,45.70
2017-12-04T20:40:59.927Z,46.10
2017-12-04T20:43:26.312Z,50.05
2017-12-04T20:45:52.640Z,55.80
2017-12-04T20:48:19.820Z,46.50
2017-12-04T20:50:46.355Z,53.67
2017-12-04T20:53:12.679Z,43.53
2017-12-04T20:55:39.044Z,44.83
2017-12-04T20:58:05.600Z,50.95
2017-12-04T21:00:32.693Z,45.97
2017-12-04T21:02:59.054Z,44.63
2017-12-04T21:05:25.358Z,42.55
2017-12-04T21:07:51.762Z,33.50
2017-12-04T21:10:30.260Z,43.40
2017-12-04T21:13:08.746Z,43.03
2017-12-04T21:15:43.091Z,41.37
2017-12-04T21:18:09.492Z,44.50
2017-12-04T21:20:35.832Z,43.20
2017-12-04T21:23:02.329Z,44.22
2017-12-04T21:25:29.461Z,37.47
2017-12-04T21:27:55.809Z,35.53
2017-12-04T21:30:22.936Z,43.78
2017-12-04T21:32:49.320Z,29.58
2017-12-04T21:35:15.677Z,36.13
2017-12-04T21:37:42.780Z,34.47
2017-12-04T21:40:09.135Z,35.05
2017-12-04T21:42:35.503Z,29.10
2017-12-04T21:45:02.641Z,32.80
2017-12-04T21:47:28.947Z,32.83
2017-12-04T21:49:55.281Z,33.42
2017-12-04T21:52:22.401Z,41.58
2017-12-04T21:54:48.725Z,35.45
2017-12-04T21:57:15.052Z,33.25
2017-12-04T21:59:41.350Z,44.97
2017-12-04T22:02:07.653Z,42.95
2017-12-04T22:04:34.081Z,37.15
2017-12-04T22:07:00.440Z,37.38
2017-12-04T22:09:26.774Z,41.20
2017-12-04T22:11:53.897Z,35.08
2017-12-04T22:14:20.226Z,36.60
2017-12-04T22:16:47.273Z,37.75
2017-12-04T22:19:14.438Z,35.00
2017-12-04T22:21:41.000Z,38.88
2017-12-04T22:24:07.364Z,42.22
2017-12-04T22:26:33.704Z,37.63
2017-12-04T22:29:00.029Z,36.45
2017-12-04T22:31:26.356Z,39.45
2017-12-04T22:33:53.458Z,34.47
2017-12-04T22:36:19.774Z,40.92
2017-12-04T22:38:46.097Z,47.05
2017-12-04T22:41:12.461Z,31.08
2017-12-04T22:43:38.755Z,45.22
2017-12-04T22:46:06.989Z,43.28
2017-12-04T22:48:33.475Z,47.65
2017-12-04T22:50:59.806Z,44.40
2017-12-04T22:53:26.103Z,54.15
2017-12-04T22:55:52.400Z,53.20
2017-12-04T22:58:18.992Z,44.20
2017-12-04T23:00:45.343Z,60.50
2017-12-04T23:03:11.668Z,59.42
2017-12-04T23:05:38.760Z,59.78
2017-12-04T23:08:05.069Z,63.35
2017-12-04T23:10:31.367Z,60.67
2017-12-04T23:12:57.702Z,55.60
2017-12-04T23:15:24.026Z,60.00
2017-12-04T23:17:50.459Z,65.30
2017-12-04T23:20:17.513Z,54.55
2017-12-04T23:22:44.640Z,62.45
2017-12-04T23:25:10.973Z,62.35
2017-12-04T23:27:37.342Z,68.68
2017-12-04T23:30:03.711Z,67.90
2017-12-04T23:32:30.826Z,62.22
2017-12-04T23:34:57.191Z,46.67
2017-12-04T23:37:25.019Z,61.75
2017-12-04T23:39:52.131Z,50.25
2017-12-04T23:42:18.556Z,54.75
2017-12-04T23:44:45.167Z,56.65
2017-12-04T23:47:12.225Z,60.92
2017-12-04T23:49:39.305Z,53.40
2017-12-04T23:52:06.714Z,62.25
2017-12-04T23:54:33.017Z,54.65
2017-12-04T23:56:59.368Z,59.17
2017-12-04T23:59:28.014Z,67.97
